createdAt,value
2022-08-16T00:01:24.631Z,21.20
2022-08-16T00:03:53.642Z,21.20
2022-08-16T00:06:22.533Z,21.30
2022-08-16T00:08:50.049Z,21.30
2022-08-16T00:11:20.851Z,21.30
2022-08-16T00:13:53.961Z,21.20
2022-08-16T00:17:06.070Z,21.20
2022-08-16T00:19:22.764Z,21.20
2022-08-16T00:21:52.193Z,21.20
2022-08-16T00:24:31.235Z,21.20
2022-08-16T00:27:01.708Z,21.20
2022-08-16T00:29:29.700Z,21.20
2022-08-16T00:31:59.884Z,21.20
2022-08-16T00:34:44.430Z,21.20
2022-08-16T00:37:20.911Z,21.20
2022-08-16T00:39:58.582Z,21.20
2022-08-16T00:42:32.079Z,21.20
2022-08-16T00:45:25.230Z,21.20
2022-08-16T00:47:53.642Z,21.20
2022-08-16T00:50:36.292Z,21.20
2022-08-16T00:53:06.051Z,21.20
2022-08-16T00:55:37.781Z,21.10
2022-08-16T00:58:12.964Z,21.20
2022-08-16T01:00:44.002Z,21.20
2022-08-16T01:03:14.097Z,21.20
2022-08-16T01:05:42.729Z,21.20
2022-08-16T01:08:35.972Z,21.20
2022-08-16T01:11:00.154Z,21.10
2022-08-16T01:13:33.584Z,21.20
2022-08-16T01:16:14.091Z,21.20
2022-08-16T01:18:50.072Z,21.10
2022-08-16T01:21:43.428Z,21.10
2022-08-16T01:24:51.723Z,21.10
2022-08-16T01:27:29.254Z,21.10
2022-08-16T01:30:19.140Z,21.10
2022-08-16T01:33:01.525Z,21.10
2022-08-16T01:35:38.945Z,21.10
2022-08-16T01:38:40.011Z,21.20
2022-08-16T01:41:19.262Z,21.10
2022-08-16T01:43:53.485Z,21.10
2022-08-16T01:46:39.177Z,21.10
2022-08-16T01:49:14.925Z,21.10
2022-08-16T01:51:45.169Z,21.10
2022-08-16T01:54:13.151Z,21.10
2022-08-16T01:56:42.317Z,21.10
2022-08-16T01:59:15.936Z,21.10
2022-08-16T02:01:52.678Z,21.10
2022-08-16T02:04:40.119Z,21.10
2022-08-16T02:07:18.371Z,21.10
2022-08-16T02:09:57.168Z,21.10
2022-08-16T02:12:49.290Z,21.10
2022-08-16T02:15:25.049Z,21.10
2022-08-16T02:17:56.821Z,21.10
2022-08-16T02:20:26.060Z,21.10
2022-08-16T02:22:55.311Z,21.10
2022-08-16T02:25:23.187Z,21.10
2022-08-16T02:27:51.688Z,21.10
2022-08-16T02:30:35.873Z,21.00
2022-08-16T02:33:06.247Z,21.00
2022-08-16T02:35:34.342Z,21.00
2022-08-16T02:38:16.978Z,21.10
2022-08-16T02:40:46.142Z,21.10
2022-08-16T02:43:13.674Z,21.10
2022-08-16T02:45:41.694Z,21.10
2022-08-16T02:48:29.329Z,21.20
2022-08-16T02:51:11.031Z,21.10
2022-08-16T02:53:43.267Z,21.10
2022-08-16T02:56:14.858Z,21.10
2022-08-16T02:58:44.176Z,21.10
2022-08-16T03:01:17.023Z,21.10
2022-08-16T03:04:29.975Z,21.10
2022-08-16T03:06:42.773Z,21.10
2022-08-16T03:09:13.811Z,21.10
2022-08-16T03:11:42.351Z,21.10
2022-08-16T03:14:09.339Z,21.10
2022-08-16T03:16:58.496Z,21.10
2022-08-16T03:19:47.139Z,21.10
2022-08-16T03:22:19.425Z,21.10
2022-08-16T03:24:57.433Z,21.10
2022-08-16T03:27:25.566Z,21.00
2022-08-16T03:29:58.505Z,21.00
2022-08-16T03:32:26.248Z,21.00
2022-08-16T03:34:53.324Z,21.00
2022-08-16T03:37:20.372Z,21.00
2022-08-16T03:39:47.638Z,21.00
2022-08-16T03:42:20.296Z,21.00
2022-08-16T03:44:50.233Z,21.00
2022-08-16T03:47:18.539Z,21.10
2022-08-16T03:49:47.587Z,21.10
2022-08-16T03:52:23.378Z,21.00
2022-08-16T03:54:57.558Z,21.10
2022-08-16T03:57:31.773Z,21.10
2022-08-16T04:00:20.670Z,21.10
2022-08-16T04:03:07.490Z,21.10
2022-08-16T04:05:38.779Z,21.10
2022-08-16T04:08:23.052Z,21.10
2022-08-16T04:10:52.880Z,21.20
2022-08-16T04:13:20.219Z,21.20
2022-08-16T04:16:07.527Z,21.20
2022-08-16T04:18:37.024Z,21.20
2022-08-16T04:21:04.758Z,21.20
2022-08-16T04:23:32.119Z,21.20
2022-08-16T04:26:02.179Z,21.30
2022-08-16T04:28:53.368Z,21.30
2022-08-16T04:31:16.851Z,21.40
2022-08-16T04:33:50.936Z,21.50
2022-08-16T04:36:19.764Z,21.50
2022-08-16T04:38:47.376Z,21.60
2022-08-16T04:41:17.693Z,21.70
2022-08-16T04:43:45.048Z,21.70
2022-08-16T04:47:00.052Z,21.80
2022-08-16T04:49:02.150Z,21.80
2022-08-16T04:51:29.143Z,22.00
2022-08-16T04:54:04.893Z,22.00
2022-08-16T04:56:32.643Z,22.10
2022-08-16T04:59:01.176Z,22.10
2022-08-16T05:01:56.046Z,22.10
2022-08-16T05:04:19.870Z,22.20
2022-08-16T05:06:47.079Z,22.20
2022-08-16T05:09:16.293Z,22.30
2022-08-16T05:11:43.906Z,22.30
2022-08-16T05:14:11.067Z,22.40
2022-08-16T05:16:47.019Z,22.40
2022-08-16T05:19:19.143Z,22.40
2022-08-16T05:21:46.025Z,22.60
2022-08-16T05:24:13.423Z,22.50
2022-08-16T05:26:43.186Z,22.60
2022-08-16T05:29:17.456Z,22.70
2022-08-16T05:31:48.235Z,22.70
2022-08-16T05:34:22.406Z,22.70
2022-08-16T05:36:51.809Z,22.70
2022-08-16T05:39:20.846Z,22.80
2022-08-16T05:41:51.712Z,22.90
2022-08-16T05:44:22.384Z,23.00
2022-08-16T05:46:56.644Z,22.90
2022-08-16T05:49:25.295Z,23.00
2022-08-16T05:52:11.658Z,23.10
2022-08-16T05:54:46.616Z,23.20
2022-08-16T05:57:15.622Z,23.20
2022-08-16T05:59:42.710Z,23.20
2022-08-16T06:02:10.375Z,23.30
2022-08-16T06:04:38.225Z,23.40
2022-08-16T06:07:24.395Z,23.60
2022-08-16T06:09:56.527Z,23.70
2022-08-16T06:12:27.177Z,23.60
2022-08-16T06:14:59.957Z,23.70
2022-08-16T06:17:41.162Z,23.80
2022-08-16T06:20:24.416Z,24.00
2022-08-16T06:23:04.190Z,24.20
2022-08-16T06:25:39.598Z,24.10
2022-08-16T06:28:17.251Z,24.10
2022-08-16T06:31:01.413Z,24.50
2022-08-16T06:33:29.470Z,24.70
2022-08-16T06:36:09.295Z,24.70
2022-08-16T06:38:37.005Z,24.70
2022-08-16T06:41:13.635Z,25.30
2022-08-16T06:43:41.954Z,25.40
2022-08-16T06:46:24.074Z,25.90
2022-08-16T06:48:59.606Z,26.50
2022-08-16T06:51:46.014Z,26.70
2022-08-16T06:54:14.212Z,26.50
2022-08-16T06:56:42.503Z,26.30
2022-08-16T06:59:10.269Z,26.60
2022-08-16T07:01:44.932Z,26.80
2022-08-16T07:04:31.814Z,26.60
2022-08-16T07:07:01.341Z,26.50
2022-08-16T07:09:29.890Z,26.80
2022-08-16T07:12:03.429Z,27.00
2022-08-16T07:14:33.509Z,27.00
2022-08-16T07:17:02.117Z,27.00
2022-08-16T07:20:03.531Z,27.10
2022-08-16T07:22:37.038Z,27.00
2022-08-16T07:25:08.930Z,27.30
2022-08-16T07:27:37.702Z,28.10
2022-08-16T07:30:38.043Z,28.10
2022-08-16T07:32:56.891Z,28.10
2022-08-16T07:35:25.113Z,28.70
2022-08-16T07:37:52.228Z,28.80
2022-08-16T07:40:24.891Z,29.20
2022-08-16T07:43:05.163Z,28.00
2022-08-16T07:45:33.868Z,27.90
2022-08-16T07:48:01.195Z,28.00
2022-08-16T07:50:57.184Z,27.70
2022-08-16T07:53:30.370Z,28.90
2022-08-16T07:55:59.483Z,29.30
2022-08-16T07:58:33.662Z,28.50
2022-08-16T08:01:10.498Z,28.60
2022-08-16T08:03:39.180Z,28.80
2022-08-16T08:06:10.400Z,28.60
2022-08-16T08:08:50.223Z,28.80
2022-08-16T08:11:21.455Z,28.40
2022-08-16T08:13:50.547Z,28.70
2022-08-16T08:16:20.008Z,29.40
2022-08-16T08:18:55.932Z,29.20
2022-08-16T08:21:58.263Z,30.20
2022-08-16T08:24:15.620Z,30.00
2022-08-16T08:26:43.035Z,29.60
2022-08-16T08:29:12.044Z,29.80
2022-08-16T08:31:42.578Z,29.70
2022-08-16T08:34:12.794Z,29.40
2022-08-16T08:36:40.164Z,28.80
2022-08-16T08:39:12.878Z,28.80
2022-08-16T08:41:42.294Z,28.40
2022-08-16T08:44:29.131Z,28.30
2022-08-16T08:46:59.993Z,28.40
2022-08-16T08:49:46.756Z,28.00
2022-08-16T08:52:34.403Z,27.80
2022-08-16T08:55:09.171Z,27.90
2022-08-16T08:57:40.642Z,27.90
2022-08-16T09:00:13.860Z,27.80
2022-08-16T09:02:42.805Z,27.80
2022-08-16T09:05:15.512Z,27.80
2022-08-16T09:08:00.236Z,27.70
2022-08-16T09:10:29.807Z,27.50
2022-08-16T09:12:57.958Z,27.60
2022-08-16T09:15:32.565Z,27.50
2022-08-16T09:18:02.113Z,27.60
2022-08-16T09:20:59.075Z,27.30
2022-08-16T09:23:28.695Z,27.40
2022-08-16T09:25:55.636Z,27.60
2022-08-16T09:29:14.010Z,27.50
2022-08-16T09:31:10.959Z,27.60
2022-08-16T09:33:39.351Z,27.50
2022-08-16T09:36:12.138Z,27.60
2022-08-16T09:38:59.792Z,27.60
2022-08-16T09:41:28.134Z,27.60
2022-08-16T09:43:59.703Z,27.60
2022-08-16T09:46:33.455Z,27.20
2022-08-16T09:49:15.766Z,27.00
2022-08-16T09:51:42.989Z,26.90
2022-08-16T09:54:16.950Z,26.90
2022-08-16T09:56:51.426Z,26.80
2022-08-16T09:59:23.679Z,26.80
2022-08-16T10:01:53.469Z,26.80
2022-08-16T10:04:31.759Z,26.90
2022-08-16T10:07:11.887Z,27.00
2022-08-16T10:09:53.847Z,27.00
2022-08-16T10:12:55.720Z,26.90
2022-08-16T10:15:25.381Z,27.10
2022-08-16T10:18:00.758Z,27.20
2022-08-16T10:20:31.408Z,27.30
2022-08-16T10:23:05.448Z,27.60
2022-08-16T10:27:18.630Z,27.70
2022-08-16T10:28:30.275Z,28.20
2022-08-16T10:31:03.570Z,28.70
2022-08-16T10:33:34.635Z,28.90
2022-08-16T10:36:12.514Z,29.00
2022-08-16T10:38:59.614Z,29.20
2022-08-16T10:41:26.729Z,29.90
2022-08-16T10:43:54.114Z,29.90
2022-08-16T10:46:39.782Z,29.40
2022-08-16T10:49:11.403Z,29.20
2022-08-16T10:52:01.490Z,29.40
2022-08-16T10:54:29.743Z,29.80
2022-08-16T10:56:59.246Z,29.60
2022-08-16T10:59:39.000Z,29.80
2022-08-16T11:02:57.559Z,29.30
2022-08-16T11:05:06.510Z,29.30
2022-08-16T11:07:53.484Z,29.40
2022-08-16T11:19:06.220Z,30.60
2022-08-16T11:22:22.465Z,30.60
2022-08-16T11:24:39.439Z,31.10
2022-08-16T11:27:20.360Z,30.90
2022-08-16T11:29:52.012Z,30.50
2022-08-16T11:32:22.758Z,30.60
2022-08-16T11:35:10.952Z,30.10
2022-08-16T11:40:52.252Z,30.10
2022-08-16T11:43:23.639Z,30.10
2022-08-16T11:45:53.943Z,30.30
2022-08-16T11:48:22.571Z,30.30
2022-08-16T11:50:49.567Z,30.10
2022-08-16T11:53:17.405Z,30.10
2022-08-16T11:55:44.681Z,29.60
2022-08-16T11:58:12.161Z,29.60
2022-08-16T12:00:51.353Z,29.50
2022-08-16T12:03:24.973Z,29.70
2022-08-16T12:06:10.751Z,29.50
2022-08-16T12:08:53.162Z,29.00
2022-08-16T12:11:20.186Z,29.20
2022-08-16T12:13:50.401Z,28.90
2022-08-16T12:16:20.533Z,28.80
2022-08-16T12:21:21.184Z,28.90
2022-08-16T12:23:49.852Z,28.60
2022-08-16T12:26:17.583Z,28.80
2022-08-16T12:28:54.436Z,28.70
2022-08-16T12:31:23.422Z,28.90
2022-08-16T12:33:54.360Z,28.70
2022-08-16T12:36:26.213Z,29.10
2022-08-16T12:38:57.383Z,29.90
2022-08-16T12:41:25.892Z,29.80
2022-08-16T12:43:57.032Z,29.10
2022-08-16T12:46:28.184Z,29.10
2022-08-16T12:48:58.096Z,28.90
2022-08-16T12:51:59.864Z,28.50
2022-08-16T12:54:23.188Z,29.20
2022-08-16T12:56:50.405Z,29.20
2022-08-16T12:59:20.376Z,29.80
2022-08-16T13:01:50.607Z,29.40
2022-08-16T13:04:24.404Z,29.40
2022-08-16T13:06:53.017Z,29.70
2022-08-16T13:09:28.886Z,30.10
2022-08-16T13:12:15.909Z,30.00
2022-08-16T13:14:44.908Z,29.70
2022-08-16T13:17:19.222Z,29.90
2022-08-16T13:20:08.599Z,29.60
2022-08-16T13:25:09.026Z,29.20
2022-08-16T13:28:03.053Z,29.30
2022-08-16T13:30:36.361Z,29.30
2022-08-16T13:33:11.473Z,29.30
2022-08-16T13:35:44.097Z,28.80
2022-08-16T13:38:21.559Z,28.60
2022-08-16T13:40:56.697Z,28.40
2022-08-16T13:43:26.796Z,28.30
2022-08-16T13:45:56.409Z,28.90
2022-08-16T13:48:37.012Z,28.50
2022-08-16T13:51:10.701Z,28.50
2022-08-16T13:53:44.655Z,28.50
2022-08-16T13:56:22.266Z,28.40
2022-08-16T13:58:54.866Z,28.30
2022-08-16T14:01:22.887Z,28.80
2022-08-16T14:03:54.611Z,28.90
2022-08-16T14:06:22.979Z,29.00
2022-08-16T14:09:06.256Z,29.20
2022-08-16T14:11:35.370Z,28.80
2022-08-16T14:14:05.627Z,28.90
2022-08-16T14:16:34.800Z,28.70
2022-08-16T14:19:02.917Z,28.90
2022-08-16T14:21:34.914Z,29.00
2022-08-16T14:24:07.826Z,28.80
2022-08-16T14:26:35.024Z,29.00
2022-08-16T14:29:03.905Z,28.80
2022-08-16T14:31:32.425Z,28.70
2022-08-16T14:34:01.073Z,28.20
2022-08-16T14:36:29.772Z,28.30
2022-08-16T14:38:58.736Z,28.60
2022-08-16T14:41:26.303Z,28.50
2022-08-16T14:43:53.342Z,27.80
2022-08-16T14:46:20.695Z,27.80
2022-08-16T14:48:47.715Z,28.00
2022-08-16T14:51:15.934Z,28.30
2022-08-16T14:53:45.451Z,28.60
2022-08-16T14:56:38.808Z,28.80
2022-08-16T14:59:03.802Z,28.50
2022-08-16T15:01:57.263Z,28.60
2022-08-16T15:04:32.343Z,28.70
2022-08-16T15:07:06.379Z,28.50
2022-08-16T15:09:44.485Z,28.20
2022-08-16T15:12:32.801Z,28.30
2022-08-16T15:15:12.893Z,28.50
2022-08-16T15:17:56.221Z,28.40
2022-08-16T15:20:29.924Z,28.40
2022-08-16T15:22:59.757Z,28.50
2022-08-16T15:25:31.282Z,27.90
2022-08-16T15:28:04.526Z,27.80
2022-08-16T15:30:57.580Z,28.00
2022-08-16T15:33:25.556Z,27.60
2022-08-16T15:35:55.418Z,27.80
2022-08-16T15:38:58.148Z,28.00
2022-08-16T15:41:28.719Z,27.70
2022-08-16T15:44:05.494Z,27.60
2022-08-16T15:46:55.543Z,27.50
2022-08-16T15:49:36.897Z,27.40
2022-08-16T15:52:15.867Z,27.70
2022-08-16T15:54:53.324Z,27.60
2022-08-16T15:57:24.567Z,27.20
2022-08-16T15:59:56.288Z,27.30
2022-08-16T16:02:32.062Z,27.40
2022-08-16T16:05:07.459Z,27.40
2022-08-16T16:07:37.585Z,27.30
2022-08-16T16:10:13.246Z,27.20
2022-08-16T16:12:51.607Z,27.10
2022-08-16T16:15:25.380Z,27.30
2022-08-16T16:17:53.859Z,27.30
2022-08-16T16:20:24.491Z,27.30
2022-08-16T16:22:57.679Z,27.30
2022-08-16T16:25:25.681Z,26.90
2022-08-16T16:27:55.331Z,27.00
2022-08-16T16:30:37.376Z,26.70
2022-08-16T16:33:20.859Z,26.70
2022-08-16T16:35:56.677Z,26.50
2022-08-16T16:38:29.003Z,26.70
2022-08-16T16:40:57.110Z,26.50
2022-08-16T16:43:26.034Z,26.60
2022-08-16T16:45:58.844Z,26.40
2022-08-16T16:48:29.826Z,26.40
2022-08-16T16:51:10.129Z,26.60
2022-08-16T16:53:41.375Z,26.50
2022-08-16T16:56:19.984Z,26.40
2022-08-16T16:59:00.933Z,26.40
2022-08-16T17:01:57.778Z,26.40
2022-08-16T17:04:31.233Z,26.70
2022-08-16T17:07:02.411Z,26.50
2022-08-16T17:09:29.855Z,26.40
2022-08-16T17:11:58.392Z,26.20
2022-08-16T17:14:32.178Z,26.30
2022-08-16T17:17:04.194Z,26.30
2022-08-16T17:19:32.113Z,26.20
2022-08-16T17:22:00.192Z,26.10
2022-08-16T17:27:18.150Z,26.00
2022-08-16T17:29:51.357Z,25.70
2022-08-16T17:32:47.412Z,25.70
2022-08-16T17:35:19.904Z,25.80
2022-08-16T17:37:51.065Z,25.90
2022-08-16T17:39:28.691Z,26.10
2022-08-16T17:40:33.996Z,25.80
2022-08-16T17:43:10.390Z,25.70
2022-08-16T17:45:39.378Z,25.60
2022-08-16T17:48:06.553Z,25.60
2022-08-16T17:50:33.788Z,25.70
2022-08-16T17:53:04.170Z,25.50
2022-08-16T17:55:34.210Z,25.40
2022-08-16T17:58:01.563Z,25.30
2022-08-16T18:00:46.852Z,25.30
2022-08-16T18:03:17.428Z,25.20
2022-08-16T18:06:06.154Z,25.20
2022-08-16T18:08:33.751Z,25.20
2022-08-16T18:11:02.830Z,25.00
2022-08-16T18:13:29.848Z,24.80
2022-08-16T18:15:57.129Z,24.80
2022-08-16T18:18:24.924Z,24.90
2022-08-16T18:21:10.639Z,24.80
2022-08-16T18:23:38.373Z,24.70
2022-08-16T18:26:06.891Z,24.70
2022-08-16T18:28:38.898Z,24.70
2022-08-16T18:31:09.191Z,24.60
2022-08-16T18:33:43.770Z,24.60
2022-08-16T18:36:20.136Z,24.50
2022-08-16T18:38:49.518Z,24.40
2022-08-16T18:41:17.030Z,24.30
2022-08-16T18:44:23.570Z,24.40
2022-08-16T18:46:31.084Z,24.30
2022-08-16T18:48:57.910Z,24.30
2022-08-16T18:51:25.777Z,24.20
2022-08-16T18:53:53.463Z,24.20
2022-08-16T18:56:20.810Z,24.20
2022-08-16T18:58:47.718Z,24.20
2022-08-16T19:01:14.840Z,24.10
2022-08-16T19:03:41.796Z,24.10
2022-08-16T19:06:13.590Z,24.10
2022-08-16T19:08:43.646Z,24.10
2022-08-16T19:11:14.979Z,24.00
2022-08-16T19:13:44.540Z,24.10
2022-08-16T19:16:12.505Z,23.90
2022-08-16T19:18:39.937Z,24.00
2022-08-16T19:21:08.110Z,23.90
2022-08-16T19:23:37.129Z,23.80
2022-08-16T19:26:10.896Z,23.90
2022-08-16T19:28:51.665Z,23.80
2022-08-16T19:31:33.730Z,23.80
2022-08-16T19:34:01.935Z,23.80
2022-08-16T19:36:35.211Z,23.80
2022-08-16T19:39:06.159Z,23.80
2022-08-16T19:41:35.510Z,23.80
2022-08-16T19:44:02.979Z,23.60
2022-08-16T19:46:30.334Z,23.60
2022-08-16T19:48:57.565Z,23.70
2022-08-16T19:51:24.449Z,23.60
2022-08-16T19:53:51.360Z,23.60
2022-08-16T19:56:18.847Z,23.50
2022-08-16T19:59:08.763Z,23.50
2022-08-16T20:01:38.515Z,23.50
2022-08-16T20:04:12.096Z,23.50
2022-08-16T20:06:39.850Z,23.40
2022-08-16T20:09:07.391Z,23.40
2022-08-16T20:11:35.697Z,23.40
2022-08-16T20:14:03.061Z,23.30
2022-08-16T20:16:30.178Z,23.30
2022-08-16T20:18:57.137Z,23.20
2022-08-16T20:21:24.721Z,23.20
2022-08-16T20:23:51.754Z,23.20
2022-08-16T20:26:19.089Z,23.20
2022-08-16T20:28:53.877Z,23.10
2022-08-16T20:31:23.729Z,23.10
2022-08-16T20:33:52.436Z,23.10
2022-08-16T20:36:19.443Z,23.10
2022-08-16T20:38:47.851Z,23.20
2022-08-16T20:41:16.082Z,23.10
2022-08-16T20:43:43.458Z,23.00
2022-08-16T20:46:10.402Z,23.00
2022-08-16T20:48:37.430Z,23.00
2022-08-16T20:51:06.872Z,23.00
2022-08-16T20:53:34.080Z,22.90
2022-08-16T20:56:01.200Z,23.00
2022-08-16T20:58:28.169Z,23.00
2022-08-16T21:00:55.088Z,23.00
2022-08-16T21:03:22.225Z,22.90
2022-08-16T21:05:49.107Z,22.90
2022-08-16T21:08:50.843Z,22.90
2022-08-16T21:11:05.658Z,22.90
2022-08-16T21:13:34.041Z,22.90
2022-08-16T21:16:02.551Z,22.80
2022-08-16T21:18:29.639Z,22.80
2022-08-16T21:20:56.736Z,22.80
2022-08-16T21:23:24.837Z,22.80
2022-08-16T21:25:58.978Z,22.80
2022-08-16T21:28:36.811Z,22.80
2022-08-16T21:31:09.894Z,22.80
2022-08-16T21:33:36.982Z,22.70
2022-08-16T21:36:04.524Z,22.70
2022-08-16T21:38:31.678Z,22.70
2022-08-16T21:41:03.590Z,22.70
2022-08-16T21:43:33.174Z,22.60
2022-08-16T21:46:02.390Z,22.60
2022-08-16T21:48:35.210Z,22.60
2022-08-16T21:51:06.547Z,22.60
2022-08-16T21:53:34.313Z,22.50
2022-08-16T21:56:02.311Z,22.50
2022-08-16T21:58:30.105Z,22.50
2022-08-16T22:00:57.560Z,22.50
2022-08-16T22:03:24.929Z,22.40
2022-08-16T22:06:00.097Z,22.40
2022-08-16T22:08:49.046Z,22.50
2022-08-16T22:11:22.806Z,22.40
2022-08-16T22:13:57.481Z,22.40
2022-08-16T22:16:28.819Z,22.40
2022-08-16T22:18:55.844Z,22.30
2022-08-16T22:21:23.143Z,22.30
2022-08-16T22:23:57.379Z,22.30
2022-08-16T22:26:30.341Z,22.30
2022-08-16T22:29:05.201Z,22.40
2022-08-16T22:31:33.089Z,22.40
2022-08-16T22:34:01.897Z,22.30
2022-08-16T22:36:29.856Z,22.30
2022-08-16T22:39:01.979Z,22.30
2022-08-16T22:41:33.964Z,22.40
2022-08-16T22:44:02.702Z,22.30
2022-08-16T22:46:30.355Z,22.30
2022-08-16T22:48:57.923Z,22.30
2022-08-16T22:51:27.526Z,22.30
2022-08-16T22:53:56.079Z,22.30
2022-08-16T22:56:23.883Z,22.20
2022-08-16T22:58:51.501Z,22.20
2022-08-16T23:01:21.269Z,22.20
2022-08-16T23:03:48.495Z,22.20
2022-08-16T23:06:15.627Z,22.20
2022-08-16T23:08:43.108Z,22.20
2022-08-16T23:11:21.376Z,22.20
2022-08-16T23:13:55.018Z,22.10
2022-08-16T23:16:33.470Z,22.10
2022-08-16T23:19:04.465Z,22.10
2022-08-16T23:21:32.161Z,22.10
2022-08-16T23:23:59.382Z,22.10
2022-08-16T23:26:45.525Z,22.10
2022-08-16T23:29:22.536Z,22.00
2022-08-16T23:31:53.859Z,22.00
2022-08-16T23:34:21.984Z,22.00
2022-08-16T23:36:48.913Z,22.00
2022-08-16T23:39:16.958Z,22.00
2022-08-16T23:41:44.715Z,21.90
2022-08-16T23:44:55.887Z,21.90
2022-08-16T23:46:59.208Z,21.90
2022-08-16T23:49:56.684Z,21.80
2022-08-16T23:52:15.628Z,21.80
2022-08-16T23:54:42.606Z,21.70
2022-08-16T23:57:09.460Z,21.70
2022-08-16T23:59:48.600Z,21.70
